sensor_id;sensor_type;location;lat;lon;timestamp;temperature;humidity
12384;DHT22;6256;63.808;20.336;2024-03-02T00:00:02;1.50;99.90
12384;DHT22;6256;63.808;20.336;2024-03-02T00:02:42;1.50;99.90
12384;DHT22;6256;63.808;20.336;2024-03-02T00:05:11;1.50;99.90
12384;DHT22;6256;63.808;20.336;2024-03-02T00:07:41;1.40;99.90
12384;DHT22;6256;63.808;20.336;2024-03-02T00:10:09;1.40;99.90
12384;DHT22;6256;63.808;20.336;2024-03-02T00:12:41;1.40;99.90
12384;DHT22;6256;63.808;20.336;2024-03-02T00:18:04;1.40;99.90
12384;DHT22;6256;63.808;20.336;2024-03-02T00:20:31;1.30;99.90
12384;DHT22;6256;63.808;20.336;2024-03-02T00:23:10;1.40;99.90
12384;DHT22;6256;63.808;20.336;2024-03-02T00:25:41;1.40;99.90
12384;DHT22;6256;63.808;20.336;2024-03-02T00:30:52;1.40;99.90
12384;DHT22;6256;63.808;20.336;2024-03-02T00:33:20;1.40;99.90
12384;DHT22;6256;63.808;20.336;2024-03-02T00:35:47;1.40;99.90
12384;DHT22;6256;63.808;20.336;2024-03-02T00:38:14;1.40;99.90
12384;DHT22;6256;63.808;20.336;2024-03-02T00:40:44;1.30;99.90
12384;DHT22;6256;63.808;20.336;2024-03-02T00:46:02;1.40;99.90
12384;DHT22;6256;63.808;20.336;2024-03-02T00:48:27;1.40;99.90
12384;DHT22;6256;63.808;20.336;2024-03-02T00:50:53;1.40;99.90
12384;DHT22;6256;63.808;20.336;2024-03-02T00:53:23;1.40;99.90
12384;DHT22;6256;63.808;20.336;2024-03-02T00:55:52;1.40;99.90
12384;DHT22;6256;63.808;20.336;2024-03-02T00:58:18;1.40;99.90
12384;DHT22;6256;63.808;20.336;2024-03-02T01:00:44;1.40;99.90
12384;DHT22;6256;63.808;20.336;2024-03-02T01:03:09;1.40;99.90
12384;DHT22;6256;63.808;20.336;2024-03-02T01:05:36;1.40;99.90
12384;DHT22;6256;63.808;20.336;2024-03-02T01:08:02;1.40;99.90
12384;DHT22;6256;63.808;20.336;2024-03-02T01:10:28;1.40;99.90
12384;DHT22;6256;63.808;20.336;2024-03-02T01:12:53;1.40;99.90
12384;DHT22;6256;63.808;20.336;2024-03-02T01:15:19;1.40;99.90
12384;DHT22;6256;63.808;20.336;2024-03-02T01:17:45;1.40;99.90
12384;DHT22;6256;63.808;20.336;2024-03-02T01:20:11;1.40;99.90
12384;DHT22;6256;63.808;20.336;2024-03-02T01:22:37;1.40;99.90
12384;DHT22;6256;63.808;20.336;2024-03-02T01:25:03;1.40;99.90
12384;DHT22;6256;63.808;20.336;2024-03-02T01:27:29;1.40;99.90
12384;DHT22;6256;63.808;20.336;2024-03-02T01:29:55;1.40;99.90
12384;DHT22;6256;63.808;20.336;2024-03-02T01:32:20;1.40;99.90
12384;DHT22;6256;63.808;20.336;2024-03-02T01:34:46;1.40;99.90
12384;DHT22;6256;63.808;20.336;2024-03-02T01:37:12;1.40;99.90
12384;DHT22;6256;63.808;20.336;2024-03-02T01:39:38;1.40;99.90
12384;DHT22;6256;63.808;20.336;2024-03-02T01:42:03;1.40;99.90
12384;DHT22;6256;63.808;20.336;2024-03-02T01:44:29;1.40;99.90
12384;DHT22;6256;63.808;20.336;2024-03-02T01:46:55;1.40;99.90
12384;DHT22;6256;63.808;20.336;2024-03-02T01:49:20;1.40;99.90
12384;DHT22;6256;63.808;20.336;2024-03-02T01:51:46;1.40;99.90
12384;DHT22;6256;63.808;20.336;2024-03-02T01:54:12;1.40;99.90
12384;DHT22;6256;63.808;20.336;2024-03-02T01:56:37;1.40;99.90
12384;DHT22;6256;63.808;20.336;2024-03-02T01:59:03;1.30;99.90
12384;DHT22;6256;63.808;20.336;2024-03-02T02:01:29;1.30;99.90
12384;DHT22;6256;63.808;20.336;2024-03-02T02:03:55;1.30;99.90
12384;DHT22;6256;63.808;20.336;2024-03-02T02:06:21;1.40;99.90
12384;DHT22;6256;63.808;20.336;2024-03-02T02:08:48;1.40;99.90
12384;DHT22;6256;63.808;20.336;2024-03-02T02:11:17;1.40;99.90
12384;DHT22;6256;63.808;20.336;2024-03-02T02:13:42;1.40;99.90
12384;DHT22;6256;63.808;20.336;2024-03-02T02:16:08;1.40;99.90
12384;DHT22;6256;63.808;20.336;2024-03-02T02:18:35;1.40;99.90
12384;DHT22;6256;63.808;20.336;2024-03-02T02:21:02;1.40;99.90
12384;DHT22;6256;63.808;20.336;2024-03-02T02:23:27;1.40;99.90
12384;DHT22;6256;63.808;20.336;2024-03-02T02:25:53;1.40;99.90
12384;DHT22;6256;63.808;20.336;2024-03-02T02:28:19;1.40;99.90
12384;DHT22;6256;63.808;20.336;2024-03-02T02:30:44;1.50;99.90
12384;DHT22;6256;63.808;20.336;2024-03-02T02:33:10;1.50;99.90
12384;DHT22;6256;63.808;20.336;2024-03-02T02:35:36;1.50;99.90
12384;DHT22;6256;63.808;20.336;2024-03-02T02:38:02;1.40;99.90
12384;DHT22;6256;63.808;20.336;2024-03-02T02:40:28;1.40;99.90
12384;DHT22;6256;63.808;20.336;2024-03-02T02:42:57;1.40;99.90
12384;DHT22;6256;63.808;20.336;2024-03-02T02:45:24;1.40;99.90
12384;DHT22;6256;63.808;20.336;2024-03-02T02:47:50;1.40;99.90
12384;DHT22;6256;63.808;20.336;2024-03-02T02:50:16;1.40;99.90
12384;DHT22;6256;63.808;20.336;2024-03-02T02:52:43;1.40;99.90
12384;DHT22;6256;63.808;20.336;2024-03-02T02:55:10;1.40;99.90
12384;DHT22;6256;63.808;20.336;2024-03-02T02:57:37;1.40;99.90
12384;DHT22;6256;63.808;20.336;2024-03-02T03:00:14;1.40;99.90
12384;DHT22;6256;63.808;20.336;2024-03-02T03:02:48;1.40;99.90
12384;DHT22;6256;63.808;20.336;2024-03-02T03:05:15;1.40;99.90
12384;DHT22;6256;63.808;20.336;2024-03-02T03:07:41;1.40;99.90
12384;DHT22;6256;63.808;20.336;2024-03-02T03:10:07;1.40;99.90
12384;DHT22;6256;63.808;20.336;2024-03-02T03:12:34;1.40;99.90
12384;DHT22;6256;63.808;20.336;2024-03-02T03:15:03;1.40;99.90
12384;DHT22;6256;63.808;20.336;2024-03-02T03:17:30;1.30;99.90
12384;DHT22;6256;63.808;20.336;2024-03-02T03:19:56;1.40;99.90
12384;DHT22;6256;63.808;20.336;2024-03-02T03:22:21;1.40;99.90
12384;DHT22;6256;63.808;20.336;2024-03-02T03:24:47;1.30;99.90
12384;DHT22;6256;63.808;20.336;2024-03-02T03:27:13;1.40;99.90
12384;DHT22;6256;63.808;20.336;2024-03-02T03:29:38;1.40;99.90
12384;DHT22;6256;63.808;20.336;2024-03-02T03:32:04;1.40;99.90
12384;DHT22;6256;63.808;20.336;2024-03-02T03:34:35;1.40;99.90
12384;DHT22;6256;63.808;20.336;2024-03-02T03:37:03;1.40;99.90
12384;DHT22;6256;63.808;20.336;2024-03-02T03:39:29;1.40;99.90
12384;DHT22;6256;63.808;20.336;2024-03-02T03:41:55;1.40;99.90
12384;DHT22;6256;63.808;20.336;2024-03-02T03:44:21;1.40;99.90
12384;DHT22;6256;63.808;20.336;2024-03-02T03:46:47;1.40;99.90
12384;DHT22;6256;63.808;20.336;2024-03-02T03:49:12;1.40;99.90
12384;DHT22;6256;63.808;20.336;2024-03-02T03:51:38;1.40;99.90
12384;DHT22;6256;63.808;20.336;2024-03-02T03:54:04;1.40;99.90
12384;DHT22;6256;63.808;20.336;2024-03-02T03:56:29;1.40;99.90
12384;DHT22;6256;63.808;20.336;2024-03-02T03:58:55;1.40;99.90
12384;DHT22;6256;63.808;20.336;2024-03-02T04:01:21;1.40;99.90
12384;DHT22;6256;63.808;20.336;2024-03-02T04:03:48;1.40;99.90
12384;DHT22;6256;63.808;20.336;2024-03-02T04:06:14;1.40;99.90
12384;DHT22;6256;63.808;20.336;2024-03-02T04:08:41;1.40;99.90
12384;DHT22;6256;63.808;20.336;2024-03-02T04:11:10;1.40;99.90
12384;DHT22;6256;63.808;20.336;2024-03-02T04:13:36;1.40;99.90
12384;DHT22;6256;63.808;20.336;2024-03-02T04:16:01;1.40;99.90
12384;DHT22;6256;63.808;20.336;2024-03-02T04:18:29;1.40;99.90
12384;DHT22;6256;63.808;20.336;2024-03-02T04:20:55;1.40;99.90
12384;DHT22;6256;63.808;20.336;2024-03-02T04:23:20;1.40;99.90
12384;DHT22;6256;63.808;20.336;2024-03-02T04:25:46;1.40;99.90
12384;DHT22;6256;63.808;20.336;2024-03-02T04:28:11;1.40;99.90
12384;DHT22;6256;63.808;20.336;2024-03-02T04:30:38;1.40;99.90
12384;DHT22;6256;63.808;20.336;2024-03-02T04:33:04;1.40;99.90
12384;DHT22;6256;63.808;20.336;2024-03-02T04:35:31;1.40;99.90
12384;DHT22;6256;63.808;20.336;2024-03-02T04:37:56;1.40;99.90
12384;DHT22;6256;63.808;20.336;2024-03-02T04:40:22;1.40;99.90
12384;DHT22;6256;63.808;20.336;2024-03-02T04:42:48;1.40;99.90
12384;DHT22;6256;63.808;20.336;2024-03-02T04:45:13;1.50;99.90
12384;DHT22;6256;63.808;20.336;2024-03-02T04:47:39;1.50;99.90
12384;DHT22;6256;63.808;20.336;2024-03-02T04:50:05;1.50;99.90
12384;DHT22;6256;63.808;20.336;2024-03-02T04:52:33;1.50;99.90
12384;DHT22;6256;63.808;20.336;2024-03-02T04:54:58;1.50;99.90
12384;DHT22;6256;63.808;20.336;2024-03-02T04:58:00;1.50;99.90
12384;DHT22;6256;63.808;20.336;2024-03-02T05:00:26;1.60;99.90
12384;DHT22;6256;63.808;20.336;2024-03-02T05:02:52;1.60;99.90
12384;DHT22;6256;63.808;20.336;2024-03-02T05:05:17;1.60;99.90
12384;DHT22;6256;63.808;20.336;2024-03-02T05:07:43;1.50;99.90
12384;DHT22;6256;63.808;20.336;2024-03-02T05:10:10;1.50;99.90
12384;DHT22;6256;63.808;20.336;2024-03-02T05:12:37;1.50;99.90
12384;DHT22;6256;63.808;20.336;2024-03-02T05:15:09;1.50;99.90
12384;DHT22;6256;63.808;20.336;2024-03-02T05:17:39;1.50;99.90
12384;DHT22;6256;63.808;20.336;2024-03-02T05:20:06;1.50;99.90
12384;DHT22;6256;63.808;20.336;2024-03-02T05:22:34;1.50;99.90
12384;DHT22;6256;63.808;20.336;2024-03-02T05:25:00;1.60;99.90
12384;DHT22;6256;63.808;20.336;2024-03-02T05:27:26;1.60;99.90
12384;DHT22;6256;63.808;20.336;2024-03-02T05:29:52;1.60;99.90
12384;DHT22;6256;63.808;20.336;2024-03-02T05:32:18;1.60;99.90
12384;DHT22;6256;63.808;20.336;2024-03-02T05:34:44;1.60;99.90
12384;DHT22;6256;63.808;20.336;2024-03-02T05:37:10;1.60;99.90
12384;DHT22;6256;63.808;20.336;2024-03-02T05:39:35;1.60;99.90
12384;DHT22;6256;63.808;20.336;2024-03-02T05:42:01;1.60;99.90
12384;DHT22;6256;63.808;20.336;2024-03-02T05:44:27;1.60;99.90
12384;DHT22;6256;63.808;20.336;2024-03-02T05:46:52;1.60;99.90
12384;DHT22;6256;63.808;20.336;2024-03-02T05:49:18;1.60;99.90
12384;DHT22;6256;63.808;20.336;2024-03-02T05:51:44;1.60;99.90
12384;DHT22;6256;63.808;20.336;2024-03-02T05:54:10;1.70;99.90
12384;DHT22;6256;63.808;20.336;2024-03-02T05:56:36;1.70;99.90
12384;DHT22;6256;63.808;20.336;2024-03-02T05:59:01;1.60;99.90
12384;DHT22;6256;63.808;20.336;2024-03-02T06:01:40;1.60;99.90
12384;DHT22;6256;63.808;20.336;2024-03-02T06:04:06;1.70;99.90
12384;DHT22;6256;63.808;20.336;2024-03-02T06:06:32;1.60;99.90
12384;DHT22;6256;63.808;20.336;2024-03-02T06:09:03;1.70;99.90
12384;DHT22;6256;63.808;20.336;2024-03-02T06:11:41;1.70;99.90
12384;DHT22;6256;63.808;20.336;2024-03-02T06:14:07;1.70;99.90
12384;DHT22;6256;63.808;20.336;2024-03-02T06:16:34;1.70;99.90
12384;DHT22;6256;63.808;20.336;2024-03-02T06:19:00;1.70;99.90
12384;DHT22;6256;63.808;20.336;2024-03-02T06:21:26;1.70;99.90
12384;DHT22;6256;63.808;20.336;2024-03-02T06:23:52;1.70;99.90
12384;DHT22;6256;63.808;20.336;2024-03-02T06:26:18;1.60;99.90
12384;DHT22;6256;63.808;20.336;2024-03-02T06:28:44;1.60;99.90
12384;DHT22;6256;63.808;20.336;2024-03-02T06:31:10;1.60;99.90
12384;DHT22;6256;63.808;20.336;2024-03-02T06:33:36;1.70;99.90
12384;DHT22;6256;63.808;20.336;2024-03-02T06:36:02;1.70;99.90
12384;DHT22;6256;63.808;20.336;2024-03-02T06:38:28;1.70;99.90
12384;DHT22;6256;63.808;20.336;2024-03-02T06:40:54;1.70;99.90
12384;DHT22;6256;63.808;20.336;2024-03-02T06:43:21;1.70;99.90
12384;DHT22;6256;63.808;20.336;2024-03-02T06:45:50;1.70;99.90
12384;DHT22;6256;63.808;20.336;2024-03-02T06:48:17;1.70;99.90
12384;DHT22;6256;63.808;20.336;2024-03-02T06:50:49;1.80;99.90
12384;DHT22;6256;63.808;20.336;2024-03-02T06:53:15;1.70;99.90
12384;DHT22;6256;63.808;20.336;2024-03-02T06:55:43;1.70;99.90
12384;DHT22;6256;63.808;20.336;2024-03-02T06:58:11;1.70;99.90
12384;DHT22;6256;63.808;20.336;2024-03-02T07:00:36;1.70;99.90
12384;DHT22;6256;63.808;20.336;2024-03-02T07:03:02;1.70;99.90
12384;DHT22;6256;63.808;20.336;2024-03-02T07:05:28;1.70;99.90
12384;DHT22;6256;63.808;20.336;2024-03-02T07:07:53;1.70;99.90
12384;DHT22;6256;63.808;20.336;2024-03-02T07:10:19;1.70;99.90
12384;DHT22;6256;63.808;20.336;2024-03-02T07:12:45;1.70;99.90
12384;DHT22;6256;63.808;20.336;2024-03-02T07:15:10;1.60;99.90
12384;DHT22;6256;63.808;20.336;2024-03-02T07:17:47;1.70;99.90
12384;DHT22;6256;63.808;20.336;2024-03-02T07:20:12;1.60;99.90
12384;DHT22;6256;63.808;20.336;2024-03-02T07:22:38;1.70;99.90
12384;DHT22;6256;63.808;20.336;2024-03-02T07:25:05;1.70;99.90
12384;DHT22;6256;63.808;20.336;2024-03-02T07:27:33;1.70;99.90
12384;DHT22;6256;63.808;20.336;2024-03-02T07:30:02;1.80;99.90
12384;DHT22;6256;63.808;20.336;2024-03-02T07:32:28;1.80;99.90
12384;DHT22;6256;63.808;20.336;2024-03-02T07:34:54;1.80;99.90
12384;DHT22;6256;63.808;20.336;2024-03-02T07:37:21;1.80;99.90
12384;DHT22;6256;63.808;20.336;2024-03-02T07:39:47;1.90;99.90
12384;DHT22;6256;63.808;20.336;2024-03-02T07:42:13;1.90;99.90
12384;DHT22;6256;63.808;20.336;2024-03-02T07:44:38;1.90;99.90
12384;DHT22;6256;63.808;20.336;2024-03-02T07:47:04;1.90;99.90
12384;DHT22;6256;63.808;20.336;2024-03-02T07:49:30;1.90;99.90
12384;DHT22;6256;63.808;20.336;2024-03-02T07:51:56;1.90;99.90
12384;DHT22;6256;63.808;20.336;2024-03-02T07:54:21;1.90;99.90
12384;DHT22;6256;63.808;20.336;2024-03-02T07:56:47;1.90;99.90
12384;DHT22;6256;63.808;20.336;2024-03-02T07:59:13;1.90;99.90
12384;DHT22;6256;63.808;20.336;2024-03-02T08:01:38;1.90;99.90
12384;DHT22;6256;63.808;20.336;2024-03-02T08:04:04;1.90;99.90
12384;DHT22;6256;63.808;20.336;2024-03-02T08:06:30;1.90;99.90
12384;DHT22;6256;63.808;20.336;2024-03-02T08:09:00;1.90;99.90
12384;DHT22;6256;63.808;20.336;2024-03-02T08:11:26;1.90;99.90
12384;DHT22;6256;63.808;20.336;2024-03-02T08:13:53;1.90;99.90
12384;DHT22;6256;63.808;20.336;2024-03-02T08:16:25;2.00;99.90
12384;DHT22;6256;63.808;20.336;2024-03-02T08:18:51;2.00;99.90
12384;DHT22;6256;63.808;20.336;2024-03-02T08:21:17;2.00;99.90
12384;DHT22;6256;63.808;20.336;2024-03-02T08:23:43;2.00;99.90
12384;DHT22;6256;63.808;20.336;2024-03-02T08:26:10;2.00;99.90
12384;DHT22;6256;63.808;20.336;2024-03-02T08:28:36;1.90;99.90
12384;DHT22;6256;63.808;20.336;2024-03-02T08:31:06;2.00;99.90
12384;DHT22;6256;63.808;20.336;2024-03-02T08:33:32;1.90;99.90
12384;DHT22;6256;63.808;20.336;2024-03-02T08:35:58;2.00;99.90
12384;DHT22;6256;63.808;20.336;2024-03-02T08:38:24;1.90;99.90
12384;DHT22;6256;63.808;20.336;2024-03-02T08:40:50;1.90;99.90
12384;DHT22;6256;63.808;20.336;2024-03-02T08:43:16;1.90;99.90
12384;DHT22;6256;63.808;20.336;2024-03-02T08:45:42;1.90;99.90
12384;DHT22;6256;63.808;20.336;2024-03-02T08:48:08;1.90;99.90
12384;DHT22;6256;63.808;20.336;2024-03-02T08:50:35;1.90;99.90
12384;DHT22;6256;63.808;20.336;2024-03-02T08:53:00;1.90;99.90
12384;DHT22;6256;63.808;20.336;2024-03-02T08:55:26;1.90;99.90
12384;DHT22;6256;63.808;20.336;2024-03-02T08:57:52;2.00;99.90
12384;DHT22;6256;63.808;20.336;2024-03-02T09:00:18;1.90;99.90
12384;DHT22;6256;63.808;20.336;2024-03-02T09:02:44;1.90;99.90
12384;DHT22;6256;63.808;20.336;2024-03-02T09:05:10;2.00;99.90
12384;DHT22;6256;63.808;20.336;2024-03-02T09:07:36;2.00;99.90
12384;DHT22;6256;63.808;20.336;2024-03-02T09:10:04;2.00;99.90
12384;DHT22;6256;63.808;20.336;2024-03-02T09:12:30;2.00;99.90
12384;DHT22;6256;63.808;20.336;2024-03-02T09:14:56;2.00;99.90
12384;DHT22;6256;63.808;20.336;2024-03-02T09:17:23;2.00;99.90
12384;DHT22;6256;63.808;20.336;2024-03-02T09:19:48;2.00;99.90
12384;DHT22;6256;63.808;20.336;2024-03-02T09:22:17;2.00;99.90
12384;DHT22;6256;63.808;20.336;2024-03-02T09:24:42;2.00;99.90
12384;DHT22;6256;63.808;20.336;2024-03-02T09:27:08;2.10;99.90
12384;DHT22;6256;63.808;20.336;2024-03-02T09:29:34;2.20;99.90
12384;DHT22;6256;63.808;20.336;2024-03-02T09:31:59;2.10;99.90
12384;DHT22;6256;63.808;20.336;2024-03-02T09:34:25;2.20;99.90
12384;DHT22;6256;63.808;20.336;2024-03-02T09:36:51;2.30;99.90
12384;DHT22;6256;63.808;20.336;2024-03-02T09:39:17;2.40;99.90
12384;DHT22;6256;63.808;20.336;2024-03-02T09:41:43;2.30;99.90
12384;DHT22;6256;63.808;20.336;2024-03-02T09:44:09;2.30;99.90
12384;DHT22;6256;63.808;20.336;2024-03-02T09:46:35;2.20;99.90
12384;DHT22;6256;63.808;20.336;2024-03-02T09:49:02;2.10;99.90
12384;DHT22;6256;63.808;20.336;2024-03-02T09:51:28;2.20;99.90
12384;DHT22;6256;63.808;20.336;2024-03-02T09:53:55;2.20;99.90
12384;DHT22;6256;63.808;20.336;2024-03-02T09:56:21;2.10;99.90
12384;DHT22;6256;63.808;20.336;2024-03-02T09:58:47;2.10;99.90
12384;DHT22;6256;63.808;20.336;2024-03-02T10:01:13;2.10;99.90
12384;DHT22;6256;63.808;20.336;2024-03-02T10:03:39;2.20;99.90
12384;DHT22;6256;63.808;20.336;2024-03-02T10:06:23;2.20;99.90
12384;DHT22;6256;63.808;20.336;2024-03-02T10:08:49;2.30;99.90
12384;DHT22;6256;63.808;20.336;2024-03-02T10:11:35;2.30;99.90
12384;DHT22;6256;63.808;20.336;2024-03-02T10:14:10;2.30;99.90
12384;DHT22;6256;63.808;20.336;2024-03-02T10:16:44;2.40;99.90
12384;DHT22;6256;63.808;20.336;2024-03-02T10:19:18;2.30;99.90
12384;DHT22;6256;63.808;20.336;2024-03-02T10:21:45;2.30;99.90
12384;DHT22;6256;63.808;20.336;2024-03-02T10:24:11;2.30;99.90
12384;DHT22;6256;63.808;20.336;2024-03-02T10:26:38;2.30;99.90
12384;DHT22;6256;63.808;20.336;2024-03-02T10:29:04;2.20;99.90
12384;DHT22;6256;63.808;20.336;2024-03-02T10:31:30;2.20;99.90
12384;DHT22;6256;63.808;20.336;2024-03-02T10:33:57;2.20;99.90
12384;DHT22;6256;63.808;20.336;2024-03-02T10:36:23;2.20;99.90
12384;DHT22;6256;63.808;20.336;2024-03-02T10:38:49;2.10;99.90
12384;DHT22;6256;63.808;20.336;2024-03-02T10:41:18;2.20;99.90
12384;DHT22;6256;63.808;20.336;2024-03-02T10:43:45;2.10;99.90
12384;DHT22;6256;63.808;20.336;2024-03-02T10:46:13;2.20;99.90
12384;DHT22;6256;63.808;20.336;2024-03-02T10:48:41;2.20;99.90
12384;DHT22;6256;63.808;20.336;2024-03-02T10:51:08;2.20;99.90
12384;DHT22;6256;63.808;20.336;2024-03-02T10:53:34;2.20;99.90
12384;DHT22;6256;63.808;20.336;2024-03-02T10:55:59;2.20;99.90
12384;DHT22;6256;63.808;20.336;2024-03-02T10:58:32;2.20;99.90
12384;DHT22;6256;63.808;20.336;2024-03-02T11:01:02;2.20;99.90
12384;DHT22;6256;63.808;20.336;2024-03-02T11:03:33;2.10;99.90
12384;DHT22;6256;63.808;20.336;2024-03-02T11:05:59;2.20;99.90
12384;DHT22;6256;63.808;20.336;2024-03-02T11:08:26;2.20;99.90
12384;DHT22;6256;63.808;20.336;2024-03-02T11:11:06;2.10;99.90
12384;DHT22;6256;63.808;20.336;2024-03-02T11:13:37;2.10;99.90
12384;DHT22;6256;63.808;20.336;2024-03-02T11:18:52;2.20;99.90
12384;DHT22;6256;63.808;20.336;2024-03-02T11:21:18;2.20;99.90
12384;DHT22;6256;63.808;20.336;2024-03-02T11:23:44;2.10;99.90
12384;DHT22;6256;63.808;20.336;2024-03-02T11:28:44;2.10;99.90
12384;DHT22;6256;63.808;20.336;2024-03-02T11:31:10;2.00;99.90
12384;DHT22;6256;63.808;20.336;2024-03-02T11:33:36;2.00;99.90
12384;DHT22;6256;63.808;20.336;2024-03-02T11:36:02;2.10;99.90
12384;DHT22;6256;63.808;20.336;2024-03-02T11:38:33;2.10;99.90
12384;DHT22;6256;63.808;20.336;2024-03-02T11:41:05;2.10;99.90
12384;DHT22;6256;63.808;20.336;2024-03-02T11:43:32;2.20;99.90
12384;DHT22;6256;63.808;20.336;2024-03-02T11:45:59;2.20;99.90
12384;DHT22;6256;63.808;20.336;2024-03-02T11:48:26;2.20;99.90
12384;DHT22;6256;63.808;20.336;2024-03-02T11:50:52;2.20;99.90
12384;DHT22;6256;63.808;20.336;2024-03-02T11:53:19;2.20;99.90
12384;DHT22;6256;63.808;20.336;2024-03-02T11:55:45;2.10;99.90
12384;DHT22;6256;63.808;20.336;2024-03-02T11:58:12;2.10;99.90
12384;DHT22;6256;63.808;20.336;2024-03-02T12:00:38;2.10;99.90
12384;DHT22;6256;63.808;20.336;2024-03-02T12:03:08;2.10;99.90
12384;DHT22;6256;63.808;20.336;2024-03-02T12:05:34;2.10;99.90
12384;DHT22;6256;63.808;20.336;2024-03-02T12:08:03;2.10;99.90
12384;DHT22;6256;63.808;20.336;2024-03-02T12:10:30;2.10;99.90
12384;DHT22;6256;63.808;20.336;2024-03-02T12:13:06;2.10;99.90
12384;DHT22;6256;63.808;20.336;2024-03-02T12:15:40;2.10;99.90
12384;DHT22;6256;63.808;20.336;2024-03-02T12:18:06;2.10;99.90
12384;DHT22;6256;63.808;20.336;2024-03-02T12:20:33;2.10;99.90
12384;DHT22;6256;63.808;20.336;2024-03-02T12:23:00;2.10;99.90
12384;DHT22;6256;63.808;20.336;2024-03-02T12:25:26;2.10;99.90
12384;DHT22;6256;63.808;20.336;2024-03-02T12:27:56;2.00;99.90
12384;DHT22;6256;63.808;20.336;2024-03-02T12:30:23;2.00;99.90
12384;DHT22;6256;63.808;20.336;2024-03-02T12:32:49;2.00;99.90
12384;DHT22;6256;63.808;20.336;2024-03-02T12:35:15;1.90;99.90
12384;DHT22;6256;63.808;20.336;2024-03-02T12:37:51;1.90;99.90
12384;DHT22;6256;63.808;20.336;2024-03-02T12:40:18;1.90;99.90
12384;DHT22;6256;63.808;20.336;2024-03-02T12:42:45;1.90;99.90
12384;DHT22;6256;63.808;20.336;2024-03-02T12:45:11;2.00;99.90
12384;DHT22;6256;63.808;20.336;2024-03-02T12:47:39;2.00;99.90
12384;DHT22;6256;63.808;20.336;2024-03-02T12:50:05;1.90;99.90
12384;DHT22;6256;63.808;20.336;2024-03-02T12:52:32;1.90;99.90
12384;DHT22;6256;63.808;20.336;2024-03-02T12:55:02;1.90;99.90
12384;DHT22;6256;63.808;20.336;2024-03-02T12:57:30;1.90;99.90
12384;DHT22;6256;63.808;20.336;2024-03-02T13:00:00;1.90;99.90
12384;DHT22;6256;63.808;20.336;2024-03-02T13:02:30;1.80;99.90
12384;DHT22;6256;63.808;20.336;2024-03-02T13:04:58;1.80;99.90
12384;DHT22;6256;63.808;20.336;2024-03-02T13:07:25;1.80;99.90
12384;DHT22;6256;63.808;20.336;2024-03-02T13:09:51;1.80;99.90
12384;DHT22;6256;63.808;20.336;2024-03-02T13:12:17;1.80;99.90
12384;DHT22;6256;63.808;20.336;2024-03-02T13:14:43;1.90;99.90
12384;DHT22;6256;63.808;20.336;2024-03-02T13:17:09;1.80;99.90
12384;DHT22;6256;63.808;20.336;2024-03-02T13:19:35;1.90;99.90
12384;DHT22;6256;63.808;20.336;2024-03-02T13:22:01;1.90;99.90
12384;DHT22;6256;63.808;20.336;2024-03-02T13:24:30;1.80;99.90
12384;DHT22;6256;63.808;20.336;2024-03-02T13:26:56;2.00;99.90
12384;DHT22;6256;63.808;20.336;2024-03-02T13:29:24;2.00;99.90
12384;DHT22;6256;63.808;20.336;2024-03-02T13:31:50;1.90;99.90
12384;DHT22;6256;63.808;20.336;2024-03-02T13:34:16;1.90;99.90
12384;DHT22;6256;63.808;20.336;2024-03-02T13:36:41;1.90;99.90
12384;DHT22;6256;63.808;20.336;2024-03-02T13:39:07;1.80;99.90
12384;DHT22;6256;63.808;20.336;2024-03-02T13:41:36;1.90;99.90
12384;DHT22;6256;63.808;20.336;2024-03-02T13:44:03;1.90;99.90
12384;DHT22;6256;63.808;20.336;2024-03-02T13:46:29;1.90;99.90
12384;DHT22;6256;63.808;20.336;2024-03-02T13:48:55;1.90;99.90
12384;DHT22;6256;63.808;20.336;2024-03-02T13:51:21;2.00;99.90
12384;DHT22;6256;63.808;20.336;2024-03-02T13:53:47;1.90;99.90
12384;DHT22;6256;63.808;20.336;2024-03-02T13:56:12;1.80;99.90
12384;DHT22;6256;63.808;20.336;2024-03-02T13:58:38;1.90;99.90
12384;DHT22;6256;63.808;20.336;2024-03-02T14:01:05;1.80;99.90
12384;DHT22;6256;63.808;20.336;2024-03-02T14:03:31;1.80;99.90
12384;DHT22;6256;63.808;20.336;2024-03-02T14:05:57;1.80;99.90
12384;DHT22;6256;63.808;20.336;2024-03-02T14:08:23;1.70;99.90
12384;DHT22;6256;63.808;20.336;2024-03-02T14:10:49;1.70;99.90
12384;DHT22;6256;63.808;20.336;2024-03-02T14:13:15;1.70;99.90
12384;DHT22;6256;63.808;20.336;2024-03-02T14:15:41;1.70;99.90
12384;DHT22;6256;63.808;20.336;2024-03-02T14:18:07;1.70;99.90
12384;DHT22;6256;63.808;20.336;2024-03-02T14:20:35;1.60;99.90
12384;DHT22;6256;63.808;20.336;2024-03-02T14:23:01;1.70;99.90
12384;DHT22;6256;63.808;20.336;2024-03-02T14:25:28;1.80;99.90
12384;DHT22;6256;63.808;20.336;2024-03-02T14:27:57;1.80;99.90
12384;DHT22;6256;63.808;20.336;2024-03-02T14:30:23;1.80;99.90
12384;DHT22;6256;63.808;20.336;2024-03-02T14:32:49;1.80;99.90
12384;DHT22;6256;63.808;20.336;2024-03-02T14:35:15;1.80;99.90
12384;DHT22;6256;63.808;20.336;2024-03-02T14:37:41;1.90;99.90
12384;DHT22;6256;63.808;20.336;2024-03-02T14:40:07;1.90;99.90
12384;DHT22;6256;63.808;20.336;2024-03-02T14:42:35;1.90;99.90
12384;DHT22;6256;63.808;20.336;2024-03-02T14:45:01;1.90;99.90
12384;DHT22;6256;63.808;20.336;2024-03-02T14:47:31;1.90;99.90
12384;DHT22;6256;63.808;20.336;2024-03-02T14:49:58;1.90;99.90
12384;DHT22;6256;63.808;20.336;2024-03-02T14:52:23;1.90;99.90
12384;DHT22;6256;63.808;20.336;2024-03-02T14:54:49;1.80;99.90
12384;DHT22;6256;63.808;20.336;2024-03-02T14:57:15;1.90;99.90
12384;DHT22;6256;63.808;20.336;2024-03-02T14:59:40;1.90;99.90
12384;DHT22;6256;63.808;20.336;2024-03-02T15:02:08;1.90;99.90
12384;DHT22;6256;63.808;20.336;2024-03-02T15:04:33;1.90;99.90
12384;DHT22;6256;63.808;20.336;2024-03-02T15:06:59;1.90;99.90
12384;DHT22;6256;63.808;20.336;2024-03-02T15:09:25;2.00;99.90
12384;DHT22;6256;63.808;20.336;2024-03-02T15:11:50;2.00;99.90
12384;DHT22;6256;63.808;20.336;2024-03-02T15:14:16;1.90;99.90
12384;DHT22;6256;63.808;20.336;2024-03-02T15:16:42;1.90;99.90
12384;DHT22;6256;63.808;20.336;2024-03-02T15:19:08;1.90;99.90
12384;DHT22;6256;63.808;20.336;2024-03-02T15:21:33;1.90;99.90
12384;DHT22;6256;63.808;20.336;2024-03-02T15:23:59;1.90;99.90
12384;DHT22;6256;63.808;20.336;2024-03-02T15:26:25;1.90;99.90
12384;DHT22;6256;63.808;20.336;2024-03-02T15:28:51;1.90;99.90
12384;DHT22;6256;63.808;20.336;2024-03-02T15:31:18;1.90;99.90
12384;DHT22;6256;63.808;20.336;2024-03-02T15:33:44;1.90;99.90
12384;DHT22;6256;63.808;20.336;2024-03-02T15:36:10;1.90;99.90
12384;DHT22;6256;63.808;20.336;2024-03-02T15:38:35;1.90;99.90
12384;DHT22;6256;63.808;20.336;2024-03-02T15:41:03;1.90;99.90
12384;DHT22;6256;63.808;20.336;2024-03-02T15:43:29;1.80;99.90
12384;DHT22;6256;63.808;20.336;2024-03-02T15:45:56;1.80;99.90
12384;DHT22;6256;63.808;20.336;2024-03-02T15:48:22;1.80;99.90
12384;DHT22;6256;63.808;20.336;2024-03-02T15:50:49;1.80;99.90
12384;DHT22;6256;63.808;20.336;2024-03-02T15:53:18;1.70;99.90
12384;DHT22;6256;63.808;20.336;2024-03-02T15:55:44;1.70;99.90